sensor_id;sensor_type;location;lat;lon;timestamp;P1;durP1;ratioP1;P2;durP2;ratioP2
41217;SDS011;26950;50.960;7.138;2023-04-24T00:00:25;0.50;;;0.50;;
41217;SDS011;26950;50.960;7.138;2023-04-24T00:02:52;0.60;;;0.53;;
41217;SDS011;26950;50.960;7.138;2023-04-24T00:05:22;1.07;;;0.57;;
41217;SDS011;26950;50.960;7.138;2023-04-24T00:07:48;1.97;;;0.73;;
41217;SDS011;26950;50.960;7.138;2023-04-24T00:10:18;1.50;;;0.60;;
41217;SDS011;26950;50.960;7.138;2023-04-24T00:12:45;1.40;;;0.80;;
41217;SDS011;26950;50.960;7.138;2023-04-24T00:15:12;0.83;;;0.70;;
41217;SDS011;26950;50.960;7.138;2023-04-24T00:17:38;1.27;;;0.87;;
41217;SDS011;26950;50.960;7.138;2023-04-24T00:20:05;1.80;;;0.90;;
41217;SDS011;26950;50.960;7.138;2023-04-24T00:22:32;2.30;;;0.67;;
41217;SDS011;26950;50.960;7.138;2023-04-24T00:24:59;1.00;;;0.70;;
41217;SDS011;26950;50.960;7.138;2023-04-24T00:27:27;1.10;;;0.70;;
41217;SDS011;26950;50.960;7.138;2023-04-24T00:29:53;0.80;;;0.80;;
41217;SDS011;26950;50.960;7.138;2023-04-24T00:32:20;0.67;;;0.67;;
41217;SDS011;26950;50.960;7.138;2023-04-24T00:34:46;0.83;;;0.70;;
41217;SDS011;26950;50.960;7.138;2023-04-24T00:37:13;2.50;;;0.80;;
41217;SDS011;26950;50.960;7.138;2023-04-24T00:39:40;2.07;;;0.70;;
41217;SDS011;26950;50.960;7.138;2023-04-24T00:42:06;0.73;;;0.63;;
41217;SDS011;26950;50.960;7.138;2023-04-24T00:44:34;1.37;;;0.80;;
41217;SDS011;26950;50.960;7.138;2023-04-24T00:47:01;1.80;;;0.70;;
41217;SDS011;26950;50.960;7.138;2023-04-24T00:49:28;3.33;;;0.70;;
41217;SDS011;26950;50.960;7.138;2023-04-24T00:51:54;1.97;;;0.57;;
41217;SDS011;26950;50.960;7.138;2023-04-24T00:54:21;1.23;;;0.70;;
41217;SDS011;26950;50.960;7.138;2023-04-24T00:56:48;1.67;;;0.70;;
41217;SDS011;26950;50.960;7.138;2023-04-24T00:59:16;1.10;;;0.67;;
41217;SDS011;26950;50.960;7.138;2023-04-24T01:01:44;0.83;;;0.60;;
41217;SDS011;26950;50.960;7.138;2023-04-24T01:04:11;2.00;;;0.70;;
41217;SDS011;26950;50.960;7.138;2023-04-24T01:06:38;0.80;;;0.80;;
41217;SDS011;26950;50.960;7.138;2023-04-24T01:09:06;0.67;;;0.67;;
41217;SDS011;26950;50.960;7.138;2023-04-24T01:11:33;1.20;;;0.70;;
41217;SDS011;26950;50.960;7.138;2023-04-24T01:14:00;0.70;;;0.60;;
41217;SDS011;26950;50.960;7.138;2023-04-24T01:16:27;0.90;;;0.63;;
41217;SDS011;26950;50.960;7.138;2023-04-24T01:18:55;2.60;;;0.87;;
41217;SDS011;26950;50.960;7.138;2023-04-24T01:21:21;1.33;;;0.60;;
41217;SDS011;26950;50.960;7.138;2023-04-24T01:23:54;0.60;;;0.60;;
41217;SDS011;26950;50.960;7.138;2023-04-24T01:26:21;1.00;;;0.90;;
41217;SDS011;26950;50.960;7.138;2023-04-24T01:28:50;1.73;;;0.90;;
41217;SDS011;26950;50.960;7.138;2023-04-24T01:31:18;2.87;;;1.30;;
41217;SDS011;26950;50.960;7.138;2023-04-24T01:33:45;1.27;;;1.07;;
41217;SDS011;26950;50.960;7.138;2023-04-24T01:36:11;1.87;;;0.90;;
41217;SDS011;26950;50.960;7.138;2023-04-24T01:38:38;5.20;;;1.10;;
41217;SDS011;26950;50.960;7.138;2023-04-24T01:41:06;2.60;;;1.10;;
41217;SDS011;26950;50.960;7.138;2023-04-24T01:43:32;2.70;;;1.07;;
41217;SDS011;26950;50.960;7.138;2023-04-24T01:45:59;1.43;;;1.10;;
41217;SDS011;26950;50.960;7.138;2023-04-24T01:48:25;1.27;;;1.10;;
41217;SDS011;26950;50.960;7.138;2023-04-24T01:50:53;3.90;;;1.13;;
41217;SDS011;26950;50.960;7.138;2023-04-24T01:53:19;2.03;;;1.00;;
41217;SDS011;26950;50.960;7.138;2023-04-24T01:55:45;1.87;;;1.20;;
41217;SDS011;26950;50.960;7.138;2023-04-24T01:58:14;1.67;;;1.30;;
41217;SDS011;26950;50.960;7.138;2023-04-24T02:00:40;4.57;;;1.30;;
41217;SDS011;26950;50.960;7.138;2023-04-24T02:03:07;2.53;;;1.33;;
41217;SDS011;26950;50.960;7.138;2023-04-24T02:05:33;1.57;;;1.00;;
41217;SDS011;26950;50.960;7.138;2023-04-24T02:08:00;3.23;;;1.63;;
41217;SDS011;26950;50.960;7.138;2023-04-24T02:10:26;2.60;;;1.60;;
41217;SDS011;26950;50.960;7.138;2023-04-24T02:12:53;3.43;;;1.70;;
41217;SDS011;26950;50.960;7.138;2023-04-24T02:15:21;3.43;;;2.10;;
41217;SDS011;26950;50.960;7.138;2023-04-24T02:17:47;4.40;;;2.43;;
41217;SDS011;26950;50.960;7.138;2023-04-24T02:20:13;3.13;;;2.40;;
41217;SDS011;26950;50.960;7.138;2023-04-24T02:22:40;4.67;;;2.80;;
41217;SDS011;26950;50.960;7.138;2023-04-24T02:25:07;4.57;;;2.57;;
41217;SDS011;26950;50.960;7.138;2023-04-24T02:27:34;4.70;;;2.30;;
41217;SDS011;26950;50.960;7.138;2023-04-24T02:30:00;4.93;;;2.83;;
41217;SDS011;26950;50.960;7.138;2023-04-24T02:32:29;4.87;;;2.50;;
41217;SDS011;26950;50.960;7.138;2023-04-24T02:34:55;5.40;;;2.80;;
41217;SDS011;26950;50.960;7.138;2023-04-24T02:37:22;4.67;;;2.80;;
41217;SDS011;26950;50.960;7.138;2023-04-24T02:39:48;5.50;;;2.80;;
41217;SDS011;26950;50.960;7.138;2023-04-24T02:42:15;4.97;;;2.70;;
41217;SDS011;26950;50.960;7.138;2023-04-24T02:44:41;4.73;;;2.70;;
41217;SDS011;26950;50.960;7.138;2023-04-24T02:47:08;5.03;;;2.80;;
41217;SDS011;26950;50.960;7.138;2023-04-24T02:49:36;7.27;;;2.70;;
41217;SDS011;26950;50.960;7.138;2023-04-24T02:52:02;3.80;;;2.60;;
41217;SDS011;26950;50.960;7.138;2023-04-24T02:54:28;6.47;;;2.90;;
41217;SDS011;26950;50.960;7.138;2023-04-24T02:56:55;5.10;;;3.33;;
41217;SDS011;26950;50.960;7.138;2023-04-24T02:59:22;6.40;;;3.27;;
41217;SDS011;26950;50.960;7.138;2023-04-24T03:01:48;4.00;;;2.90;;
41217;SDS011;26950;50.960;7.138;2023-04-24T03:04:15;6.00;;;3.60;;
41217;SDS011;26950;50.960;7.138;2023-04-24T03:06:42;7.60;;;3.70;;
41217;SDS011;26950;50.960;7.138;2023-04-24T03:09:09;6.13;;;3.90;;
41217;SDS011;26950;50.960;7.138;2023-04-24T03:11:35;8.20;;;3.83;;
41217;SDS011;26950;50.960;7.138;2023-04-24T03:14:02;8.03;;;4.13;;
41217;SDS011;26950;50.960;7.138;2023-04-24T03:16:28;5.73;;;3.60;;
41217;SDS011;26950;50.960;7.138;2023-04-24T03:18:55;7.27;;;3.63;;
41217;SDS011;26950;50.960;7.138;2023-04-24T03:21:21;8.77;;;4.00;;
41217;SDS011;26950;50.960;7.138;2023-04-24T03:23:49;7.30;;;3.67;;
41217;SDS011;26950;50.960;7.138;2023-04-24T03:26:16;5.57;;;4.03;;
41217;SDS011;26950;50.960;7.138;2023-04-24T03:28:42;6.63;;;4.00;;
41217;SDS011;26950;50.960;7.138;2023-04-24T03:31:09;6.07;;;4.13;;
41217;SDS011;26950;50.960;7.138;2023-04-24T03:33:35;5.77;;;4.10;;
41217;SDS011;26950;50.960;7.138;2023-04-24T03:36:02;5.47;;;4.10;;
41217;SDS011;26950;50.960;7.138;2023-04-24T03:38:28;7.27;;;4.80;;
41217;SDS011;26950;50.960;7.138;2023-04-24T03:40:56;6.53;;;4.47;;
41217;SDS011;26950;50.960;7.138;2023-04-24T03:43:22;11.07;;;4.90;;
41217;SDS011;26950;50.960;7.138;2023-04-24T03:45:50;6.67;;;4.13;;
41217;SDS011;26950;50.960;7.138;2023-04-24T03:48:16;7.83;;;4.40;;
41217;SDS011;26950;50.960;7.138;2023-04-24T03:50:43;7.27;;;4.60;;
41217;SDS011;26950;50.960;7.138;2023-04-24T03:53:10;9.00;;;4.63;;
41217;SDS011;26950;50.960;7.138;2023-04-24T03:55:36;6.80;;;4.47;;
41217;SDS011;26950;50.960;7.138;2023-04-24T03:58:04;7.33;;;4.20;;
41217;SDS011;26950;50.960;7.138;2023-04-24T04:00:30;6.27;;;4.10;;
41217;SDS011;26950;50.960;7.138;2023-04-24T04:02:58;9.13;;;4.30;;
41217;SDS011;26950;50.960;7.138;2023-04-24T04:05:24;6.63;;;4.10;;
41217;SDS011;26950;50.960;7.138;2023-04-24T04:07:51;6.33;;;3.60;;
41217;SDS011;26950;50.960;7.138;2023-04-24T04:10:17;6.73;;;3.73;;
41217;SDS011;26950;50.960;7.138;2023-04-24T04:12:44;9.17;;;4.17;;
41217;SDS011;26950;50.960;7.138;2023-04-24T04:15:12;7.53;;;3.90;;
41217;SDS011;26950;50.960;7.138;2023-04-24T04:17:38;8.00;;;3.80;;
41217;SDS011;26950;50.960;7.138;2023-04-24T04:20:05;6.03;;;4.00;;
41217;SDS011;26950;50.960;7.138;2023-04-24T04:22:34;6.33;;;3.73;;
41217;SDS011;26950;50.960;7.138;2023-04-24T04:25:01;6.97;;;3.70;;
41217;SDS011;26950;50.960;7.138;2023-04-24T04:27:28;7.03;;;3.37;;
41217;SDS011;26950;50.960;7.138;2023-04-24T04:29:57;5.97;;;3.43;;
41217;SDS011;26950;50.960;7.138;2023-04-24T04:32:25;7.20;;;4.00;;
41217;SDS011;26950;50.960;7.138;2023-04-24T04:34:52;5.13;;;3.43;;
41217;SDS011;26950;50.960;7.138;2023-04-24T04:37:19;6.40;;;3.80;;
41217;SDS011;26950;50.960;7.138;2023-04-24T04:39:45;6.80;;;3.77;;
41217;SDS011;26950;50.960;7.138;2023-04-24T04:42:12;7.47;;;3.83;;
41217;SDS011;26950;50.960;7.138;2023-04-24T04:44:38;5.17;;;3.37;;
41217;SDS011;26950;50.960;7.138;2023-04-24T04:47:05;5.33;;;3.30;;
41217;SDS011;26950;50.960;7.138;2023-04-24T04:49:35;6.63;;;3.70;;
41217;SDS011;26950;50.960;7.138;2023-04-24T04:52:01;7.77;;;4.43;;
41217;SDS011;26950;50.960;7.138;2023-04-24T04:54:28;4.83;;;3.40;;
41217;SDS011;26950;50.960;7.138;2023-04-24T04:56:54;6.63;;;4.20;;
41217;SDS011;26950;50.960;7.138;2023-04-24T04:59:22;5.80;;;3.60;;
41217;SDS011;26950;50.960;7.138;2023-04-24T05:01:48;5.90;;;3.90;;
41217;SDS011;26950;50.960;7.138;2023-04-24T05:04:15;6.60;;;3.77;;
41217;SDS011;26950;50.960;7.138;2023-04-24T05:06:43;6.10;;;3.90;;
41217;SDS011;26950;50.960;7.138;2023-04-24T05:09:09;7.97;;;4.03;;
41217;SDS011;26950;50.960;7.138;2023-04-24T05:11:36;6.90;;;3.83;;
41217;SDS011;26950;50.960;7.138;2023-04-24T05:14:02;7.03;;;3.70;;
41217;SDS011;26950;50.960;7.138;2023-04-24T05:16:29;5.23;;;3.73;;
41217;SDS011;26950;50.960;7.138;2023-04-24T05:18:55;8.57;;;4.00;;
41217;SDS011;26950;50.960;7.138;2023-04-24T05:21:22;6.63;;;4.17;;
41217;SDS011;26950;50.960;7.138;2023-04-24T05:23:50;9.53;;;4.33;;
41217;SDS011;26950;50.960;7.138;2023-04-24T05:26:16;6.10;;;3.90;;
41217;SDS011;26950;50.960;7.138;2023-04-24T05:28:43;6.90;;;4.10;;
41217;SDS011;26950;50.960;7.138;2023-04-24T05:31:10;7.13;;;3.83;;
41217;SDS011;26950;50.960;7.138;2023-04-24T05:33:37;7.20;;;4.37;;
41217;SDS011;26950;50.960;7.138;2023-04-24T05:36:04;6.80;;;4.07;;
41217;SDS011;26950;50.960;7.138;2023-04-24T05:38:32;8.30;;;4.10;;
41217;SDS011;26950;50.960;7.138;2023-04-24T05:40:59;6.70;;;4.50;;
41217;SDS011;26950;50.960;7.138;2023-04-24T05:43:26;6.60;;;3.80;;
41217;SDS011;26950;50.960;7.138;2023-04-24T05:45:52;7.97;;;4.00;;
41217;SDS011;26950;50.960;7.138;2023-04-24T05:48:20;7.83;;;4.00;;
41217;SDS011;26950;50.960;7.138;2023-04-24T05:50:47;8.40;;;4.00;;
41217;SDS011;26950;50.960;7.138;2023-04-24T05:53:13;7.37;;;4.77;;
41217;SDS011;26950;50.960;7.138;2023-04-24T05:55:40;9.77;;;4.13;;
41217;SDS011;26950;50.960;7.138;2023-04-24T05:58:08;6.70;;;4.03;;
41217;SDS011;26950;50.960;7.138;2023-04-24T06:00:35;7.50;;;4.00;;
41217;SDS011;26950;50.960;7.138;2023-04-24T06:03:01;6.93;;;4.50;;
41217;SDS011;26950;50.960;7.138;2023-04-24T06:05:28;5.53;;;4.30;;
41217;SDS011;26950;50.960;7.138;2023-04-24T06:07:55;8.80;;;4.47;;
41217;SDS011;26950;50.960;7.138;2023-04-24T06:10:22;5.90;;;4.17;;
41217;SDS011;26950;50.960;7.138;2023-04-24T06:12:48;8.20;;;4.60;;
41217;SDS011;26950;50.960;7.138;2023-04-24T06:15:16;7.47;;;4.07;;
41217;SDS011;26950;50.960;7.138;2023-04-24T06:17:43;6.63;;;4.30;;
41217;SDS011;26950;50.960;7.138;2023-04-24T06:20:09;11.37;;;4.30;;
41217;SDS011;26950;50.960;7.138;2023-04-24T06:22:36;8.17;;;4.20;;
41217;SDS011;26950;50.960;7.138;2023-04-24T06:25:05;6.73;;;4.20;;
41217;SDS011;26950;50.960;7.138;2023-04-24T06:27:32;6.70;;;4.03;;
41217;SDS011;26950;50.960;7.138;2023-04-24T06:29:58;6.50;;;4.20;;
41217;SDS011;26950;50.960;7.138;2023-04-24T06:32:26;7.93;;;4.50;;
41217;SDS011;26950;50.960;7.138;2023-04-24T06:34:53;7.53;;;4.70;;
41217;SDS011;26950;50.960;7.138;2023-04-24T06:37:20;5.87;;;4.50;;
41217;SDS011;26950;50.960;7.138;2023-04-24T06:39:46;6.40;;;4.40;;
41217;SDS011;26950;50.960;7.138;2023-04-24T06:42:13;6.43;;;4.43;;
41217;SDS011;26950;50.960;7.138;2023-04-24T06:44:39;6.87;;;4.57;;
41217;SDS011;26950;50.960;7.138;2023-04-24T06:47:06;9.53;;;5.03;;
41217;SDS011;26950;50.960;7.138;2023-04-24T06:49:35;8.87;;;5.07;;
41217;SDS011;26950;50.960;7.138;2023-04-24T06:52:01;7.23;;;4.90;;
41217;SDS011;26950;50.960;7.138;2023-04-24T06:54:28;8.80;;;5.30;;
41217;SDS011;26950;50.960;7.138;2023-04-24T06:56:54;8.57;;;4.70;;
41217;SDS011;26950;50.960;7.138;2023-04-24T06:59:22;7.10;;;4.53;;
41217;SDS011;26950;50.960;7.138;2023-04-24T07:01:48;8.07;;;4.03;;
41217;SDS011;26950;50.960;7.138;2023-04-24T07:04:16;6.13;;;3.00;;
41217;SDS011;26950;50.960;7.138;2023-04-24T07:06:43;4.33;;;2.73;;
41217;SDS011;26950;50.960;7.138;2023-04-24T07:09:11;4.57;;;2.30;;
41217;SDS011;26950;50.960;7.138;2023-04-24T07:11:38;3.27;;;2.23;;
41217;SDS011;26950;50.960;7.138;2023-04-24T07:14:05;4.33;;;2.20;;
41217;SDS011;26950;50.960;7.138;2023-04-24T07:16:32;3.30;;;2.20;;
41217;SDS011;26950;50.960;7.138;2023-04-24T07:18:59;5.27;;;2.23;;
41217;SDS011;26950;50.960;7.138;2023-04-24T07:21:25;3.90;;;2.00;;
41217;SDS011;26950;50.960;7.138;2023-04-24T07:23:53;5.10;;;1.90;;
41217;SDS011;26950;50.960;7.138;2023-04-24T07:26:20;4.53;;;1.70;;
41217;SDS011;26950;50.960;7.138;2023-04-24T07:28:46;3.17;;;2.03;;
41217;SDS011;26950;50.960;7.138;2023-04-24T07:31:13;3.93;;;1.83;;
41217;SDS011;26950;50.960;7.138;2023-04-24T07:33:40;2.07;;;1.50;;
41217;SDS011;26950;50.960;7.138;2023-04-24T07:36:06;2.40;;;1.40;;
41217;SDS011;26950;50.960;7.138;2023-04-24T07:38:33;3.73;;;1.50;;
41217;SDS011;26950;50.960;7.138;2023-04-24T07:41:01;1.70;;;1.40;;
41217;SDS011;26950;50.960;7.138;2023-04-24T07:43:27;2.50;;;1.60;;
41217;SDS011;26950;50.960;7.138;2023-04-24T07:45:54;3.50;;;1.67;;
41217;SDS011;26950;50.960;7.138;2023-04-24T07:48:20;2.23;;;1.30;;
41217;SDS011;26950;50.960;7.138;2023-04-24T07:50:47;1.90;;;1.40;;
41217;SDS011;26950;50.960;7.138;2023-04-24T07:53:13;2.33;;;1.07;;
41217;SDS011;26950;50.960;7.138;2023-04-24T07:55:40;1.50;;;0.83;;
41217;SDS011;26950;50.960;7.138;2023-04-24T07:58:07;1.63;;;0.80;;
41217;SDS011;26950;50.960;7.138;2023-04-24T08:00:34;1.30;;;0.87;;
41217;SDS011;26950;50.960;7.138;2023-04-24T08:03:01;1.30;;;0.80;;
41217;SDS011;26950;50.960;7.138;2023-04-24T08:05:27;3.50;;;0.90;;
41217;SDS011;26950;50.960;7.138;2023-04-24T08:07:54;2.80;;;1.20;;
41217;SDS011;26950;50.960;7.138;2023-04-24T08:10:21;1.47;;;0.70;;
41217;SDS011;26950;50.960;7.138;2023-04-24T08:12:48;1.30;;;0.80;;
41217;SDS011;26950;50.960;7.138;2023-04-24T08:15:16;0.70;;;0.70;;
41217;SDS011;26950;50.960;7.138;2023-04-24T08:17:43;1.00;;;0.67;;
41217;SDS011;26950;50.960;7.138;2023-04-24T08:20:10;0.93;;;0.50;;
41217;SDS011;26950;50.960;7.138;2023-04-24T08:22:38;1.87;;;0.90;;
41217;SDS011;26950;50.960;7.138;2023-04-24T08:25:05;1.63;;;0.90;;
41217;SDS011;26950;50.960;7.138;2023-04-24T08:27:32;1.40;;;0.93;;
41217;SDS011;26950;50.960;7.138;2023-04-24T08:29:58;1.60;;;0.60;;
41217;SDS011;26950;50.960;7.138;2023-04-24T08:32:27;1.47;;;0.67;;
41217;SDS011;26950;50.960;7.138;2023-04-24T08:34:54;1.47;;;0.80;;
41217;SDS011;26950;50.960;7.138;2023-04-24T08:37:22;0.90;;;0.60;;
41217;SDS011;26950;50.960;7.138;2023-04-24T08:39:48;0.77;;;0.70;;
41217;SDS011;26950;50.960;7.138;2023-04-24T08:42:15;1.43;;;0.80;;
41217;SDS011;26950;50.960;7.138;2023-04-24T08:44:43;1.10;;;0.90;;
41217;SDS011;26950;50.960;7.138;2023-04-24T08:47:10;3.23;;;0.70;;
41217;SDS011;26950;50.960;7.138;2023-04-24T08:49:39;1.47;;;1.07;;
41217;SDS011;26950;50.960;7.138;2023-04-24T08:52:05;1.73;;;1.00;;
41217;SDS011;26950;50.960;7.138;2023-04-24T08:54:33;1.70;;;0.90;;
41217;SDS011;26950;50.960;7.138;2023-04-24T08:57:00;1.00;;;0.80;;
41217;SDS011;26950;50.960;7.138;2023-04-24T08:59:29;2.03;;;0.90;;
41217;SDS011;26950;50.960;7.138;2023-04-24T09:01:56;2.90;;;1.00;;
41217;SDS011;26950;50.960;7.138;2023-04-24T09:04:23;1.63;;;1.10;;
41217;SDS011;26950;50.960;7.138;2023-04-24T09:06:52;3.27;;;1.50;;
41217;SDS011;26950;50.960;7.138;2023-04-24T09:09:22;2.63;;;1.40;;
41217;SDS011;26950;50.960;7.138;2023-04-24T09:11:50;3.17;;;1.23;;
41217;SDS011;26950;50.960;7.138;2023-04-24T09:14:18;3.80;;;1.43;;
41217;SDS011;26950;50.960;7.138;2023-04-24T09:16:45;6.10;;;1.50;;
41217;SDS011;26950;50.960;7.138;2023-04-24T09:19:12;2.70;;;1.50;;
41217;SDS011;26950;50.960;7.138;2023-04-24T09:21:38;3.90;;;1.70;;
41217;SDS011;26950;50.960;7.138;2023-04-24T09:24:14;7.10;;;1.87;;
41217;SDS011;26950;50.960;7.138;2023-04-24T09:26:43;5.53;;;2.17;;
41217;SDS011;26950;50.960;7.138;2023-04-24T09:29:13;3.33;;;1.90;;
41217;SDS011;26950;50.960;7.138;2023-04-24T09:31:41;3.43;;;2.00;;
41217;SDS011;26950;50.960;7.138;2023-04-24T09:34:07;3.97;;;2.20;;
41217;SDS011;26950;50.960;7.138;2023-04-24T09:36:35;3.20;;;2.33;;
41217;SDS011;26950;50.960;7.138;2023-04-24T09:39:04;5.00;;;2.90;;
41217;SDS011;26950;50.960;7.138;2023-04-24T09:41:34;3.97;;;2.57;;
41217;SDS011;26950;50.960;7.138;2023-04-24T09:44:10;5.97;;;3.07;;
41217;SDS011;26950;50.960;7.138;2023-04-24T09:46:38;5.97;;;3.30;;
41217;SDS011;26950;50.960;7.138;2023-04-24T09:49:07;5.47;;;3.00;;
41217;SDS011;26950;50.960;7.138;2023-04-24T09:51:36;6.07;;;3.50;;
41217;SDS011;26950;50.960;7.138;2023-04-24T09:54:04;5.87;;;3.20;;
41217;SDS011;26950;50.960;7.138;2023-04-24T09:56:39;8.10;;;3.80;;
41217;SDS011;26950;50.960;7.138;2023-04-24T09:59:09;5.37;;;3.53;;
41217;SDS011;26950;50.960;7.138;2023-04-24T10:01:35;6.63;;;3.77;;
41217;SDS011;26950;50.960;7.138;2023-04-24T10:04:03;6.53;;;3.60;;
41217;SDS011;26950;50.960;7.138;2023-04-24T10:06:31;5.93;;;3.47;;
41217;SDS011;26950;50.960;7.138;2023-04-24T10:08:59;8.67;;;4.97;;
41217;SDS011;26950;50.960;7.138;2023-04-24T10:11:26;5.13;;;3.53;;
41217;SDS011;26950;50.960;7.138;2023-04-24T10:13:54;6.80;;;4.20;;
41217;SDS011;26950;50.960;7.138;2023-04-24T10:16:22;10.40;;;4.70;;
41217;SDS011;26950;50.960;7.138;2023-04-24T10:18:52;7.93;;;4.23;;
41217;SDS011;26950;50.960;7.138;2023-04-24T10:21:18;9.10;;;4.90;;
41217;SDS011;26950;50.960;7.138;2023-04-24T10:23:45;6.87;;;4.67;;
41217;SDS011;26950;50.960;7.138;2023-04-24T10:26:12;9.23;;;5.10;;
41217;SDS011;26950;50.960;7.138;2023-04-24T10:28:42;8.33;;;4.83;;
41217;SDS011;26950;50.960;7.138;2023-04-24T10:31:12;9.07;;;5.17;;
41217;SDS011;26950;50.960;7.138;2023-04-24T10:33:39;10.83;;;5.10;;
41217;SDS011;26950;50.960;7.138;2023-04-24T10:36:08;6.63;;;4.43;;
41217;SDS011;26950;50.960;7.138;2023-04-24T10:38:36;9.33;;;4.93;;
41217;SDS011;26950;50.960;7.138;2023-04-24T10:41:08;9.17;;;4.73;;
41217;SDS011;26950;50.960;7.138;2023-04-24T10:43:41;8.33;;;4.47;;
41217;SDS011;26950;50.960;7.138;2023-04-24T10:46:08;7.37;;;4.37;;
41217;SDS011;26950;50.960;7.138;2023-04-24T10:48:37;6.27;;;3.90;;
41217;SDS011;26950;50.960;7.138;2023-04-24T10:51:10;9.40;;;3.90;;
41217;SDS011;26950;50.960;7.138;2023-04-24T10:53:37;6.40;;;3.70;;
41217;SDS011;26950;50.960;7.138;2023-04-24T10:56:04;12.90;;;4.20;;
41217;SDS011;26950;50.960;7.138;2023-04-24T10:58:35;8.63;;;3.53;;
41217;SDS011;26950;50.960;7.138;2023-04-24T11:01:03;11.50;;;3.83;;
41217;SDS011;26950;50.960;7.138;2023-04-24T11:03:30;9.00;;;4.07;;
41217;SDS011;26950;50.960;7.138;2023-04-24T11:06:01;10.07;;;3.93;;
41217;SDS011;26950;50.960;7.138;2023-04-24T11:08:29;8.30;;;3.50;;
41217;SDS011;26950;50.960;7.138;2023-04-24T11:10:58;7.27;;;3.40;;
41217;SDS011;26950;50.960;7.138;2023-04-24T11:13:28;13.53;;;4.00;;
41217;SDS011;26950;50.960;7.138;2023-04-24T11:16:34;7.23;;;3.13;;
41217;SDS011;26950;50.960;7.138;2023-04-24T11:19:04;8.77;;;3.30;;
41217;SDS011;26950;50.960;7.138;2023-04-24T11:21:32;7.63;;;3.10;;
41217;SDS011;26950;50.960;7.138;2023-04-24T11:27:11;10.20;;;2.53;;
41217;SDS011;26950;50.960;7.138;2023-04-24T11:29:43;8.90;;;2.70;;
41217;SDS011;26950;50.960;7.138;2023-04-24T11:32:19;13.23;;;3.63;;
41217;SDS011;26950;50.960;7.138;2023-04-24T11:34:51;11.63;;;3.33;;
41217;SDS011;26950;50.960;7.138;2023-04-24T11:37:18;7.23;;;2.77;;
41217;SDS011;26950;50.960;7.138;2023-04-24T11:39:45;9.10;;;2.70;;
41217;SDS011;26950;50.960;7.138;2023-04-24T11:42:12;8.27;;;2.83;;
41217;SDS011;26950;50.960;7.138;2023-04-24T11:44:40;7.27;;;2.70;;
41217;SDS011;26950;50.960;7.138;2023-04-24T11:47:07;8.20;;;3.00;;
41217;SDS011;26950;50.960;7.138;2023-04-24T11:49:37;9.30;;;2.60;;
41217;SDS011;26950;50.960;7.138;2023-04-24T11:52:04;10.80;;;2.97;;
41217;SDS011;26950;50.960;7.138;2023-04-24T11:54:31;10.07;;;3.37;;
41217;SDS011;26950;50.960;7.138;2023-04-24T11:56:57;9.17;;;3.30;;
41217;SDS011;26950;50.960;7.138;2023-04-24T11:59:24;7.63;;;2.90;;
41217;SDS011;26950;50.960;7.138;2023-04-24T12:01:51;12.63;;;3.57;;
41217;SDS011;26950;50.960;7.138;2023-04-24T12:04:17;10.23;;;3.00;;
41217;SDS011;26950;50.960;7.138;2023-04-24T12:07:01;9.97;;;3.80;;
41217;SDS011;26950;50.960;7.138;2023-04-24T12:09:28;10.07;;;3.87;;
41217;SDS011;26950;50.960;7.138;2023-04-24T12:11:55;10.10;;;3.40;;
41217;SDS011;26950;50.960;7.138;2023-04-24T12:14:22;9.53;;;3.77;;
41217;SDS011;26950;50.960;7.138;2023-04-24T12:16:49;12.00;;;4.40;;
41217;SDS011;26950;50.960;7.138;2023-04-24T12:19:17;13.80;;;4.07;;
41217;SDS011;26950;50.960;7.138;2023-04-24T12:21:45;10.63;;;4.47;;
41217;SDS011;26950;50.960;7.138;2023-04-24T12:24:26;13.20;;;4.40;;
41217;SDS011;26950;50.960;7.138;2023-04-24T12:26:53;8.23;;;3.53;;
41217;SDS011;26950;50.960;7.138;2023-04-24T12:29:20;12.07;;;4.60;;
41217;SDS011;26950;50.960;7.138;2023-04-24T12:31:46;14.07;;;4.33;;
41217;SDS011;26950;50.960;7.138;2023-04-24T12:34:19;12.70;;;4.63;;
41217;SDS011;26950;50.960;7.138;2023-04-24T12:36:46;11.97;;;4.80;;
41217;SDS011;26950;50.960;7.138;2023-04-24T12:39:15;17.07;;;4.77;;
41217;SDS011;26950;50.960;7.138;2023-04-24T12:41:56;14.83;;;5.07;;
41217;SDS011;26950;50.960;7.138;2023-04-24T12:44:33;16.60;;;5.70;;
41217;SDS011;26950;50.960;7.138;2023-04-24T12:47:02;15.23;;;5.43;;
41217;SDS011;26950;50.960;7.138;2023-04-24T12:49:29;12.70;;;5.33;;
41217;SDS011;26950;50.960;7.138;2023-04-24T12:51:56;9.50;;;4.93;;
41217;SDS011;26950;50.960;7.138;2023-04-24T12:54:22;11.20;;;4.67;;
41217;SDS011;26950;50.960;7.138;2023-04-24T12:56:49;9.83;;;4.60;;
41217;SDS011;26950;50.960;7.138;2023-04-24T12:59:17;16.63;;;5.07;;
41217;SDS011;26950;50.960;7.138;2023-04-24T13:01:43;10.07;;;4.57;;
41217;SDS011;26950;50.960;7.138;2023-04-24T13:04:10;13.33;;;4.77;;
41217;SDS011;26950;50.960;7.138;2023-04-24T13:06:36;12.20;;;4.30;;
41217;SDS011;26950;50.960;7.138;2023-04-24T13:09:03;11.67;;;4.40;;
41217;SDS011;26950;50.960;7.138;2023-04-24T13:11:29;13.73;;;4.43;;
41217;SDS011;26950;50.960;7.138;2023-04-24T13:13:56;13.80;;;4.77;;
41217;SDS011;26950;50.960;7.138;2023-04-24T13:16:23;10.20;;;4.20;;
41217;SDS011;26950;50.960;7.138;2023-04-24T13:18:50;15.53;;;5.10;;
41217;SDS011;26950;50.960;7.138;2023-04-24T13:21:16;8.87;;;4.17;;
41217;SDS011;26950;50.960;7.138;2023-04-24T13:23:43;14.13;;;4.50;;
41217;SDS011;26950;50.960;7.138;2023-04-24T13:26:09;10.67;;;4.10;;
41217;SDS011;26950;50.960;7.138;2023-04-24T13:28:36;10.57;;;4.50;;
41217;SDS011;26950;50.960;7.138;2023-04-24T13:31:03;14.67;;;4.33;;
41217;SDS011;26950;50.960;7.138;2023-04-24T13:33:32;11.20;;;4.43;;
41217;SDS011;26950;50.960;7.138;2023-04-24T13:35:59;13.67;;;4.27;;
41217;SDS011;26950;50.960;7.138;2023-04-24T13:38:25;16.77;;;4.73;;
41217;SDS011;26950;50.960;7.138;2023-04-24T13:40:52;16.13;;;4.63;;
41217;SDS011;26950;50.960;7.138;2023-04-24T13:43:18;9.70;;;4.43;;
41217;SDS011;26950;50.960;7.138;2023-04-24T13:45:45;12.43;;;4.73;;
41217;SDS011;26950;50.960;7.138;2023-04-24T13:48:11;12.23;;;4.30;;
41217;SDS011;26950;50.960;7.138;2023-04-24T13:50:41;10.90;;;4.40;;
41217;SDS011;26950;50.960;7.138;2023-04-24T13:53:08;9.73;;;4.00;;
41217;SDS011;26950;50.960;7.138;2023-04-24T13:55:34;7.93;;;4.10;;
41217;SDS011;26950;50.960;7.138;2023-04-24T13:58:01;10.13;;;3.87;;
41217;SDS011;26950;50.960;7.138;2023-04-24T14:00:28;11.00;;;3.80;;
41217;SDS011;26950;50.960;7.138;2023-04-24T14:02:54;10.10;;;3.70;;
41217;SDS011;26950;50.960;7.138;2023-04-24T14:05:21;10.83;;;3.60;;
41217;SDS011;26950;50.960;7.138;2023-04-24T14:07:49;15.00;;;4.03;;
41217;SDS011;26950;50.960;7.138;2023-04-24T14:10:16;7.47;;;3.40;;
41217;SDS011;26950;50.960;7.138;2023-04-24T14:12:43;7.23;;;3.10;;
41217;SDS011;26950;50.960;7.138;2023-04-24T14:15:10;9.73;;;3.23;;
41217;SDS011;26950;50.960;7.138;2023-04-24T14:17:38;8.33;;;3.23;;
41217;SDS011;26950;50.960;7.138;2023-04-24T14:20:05;7.47;;;2.97;;
41217;SDS011;26950;50.960;7.138;2023-04-24T14:22:34;9.17;;;3.60;;
41217;SDS011;26950;50.960;7.138;2023-04-24T14:25:01;9.47;;;3.00;;
41217;SDS011;26950;50.960;7.138;2023-04-24T14:27:28;11.00;;;4.50;;
41217;SDS011;26950;50.960;7.138;2023-04-24T14:29:55;6.97;;;3.17;;
41217;SDS011;26950;50.960;7.138;2023-04-24T14:32:21;9.20;;;3.83;;
41217;SDS011;26950;50.960;7.138;2023-04-24T14:34:48;9.27;;;3.63;;
41217;SDS011;26950;50.960;7.138;2023-04-24T14:37:14;11.20;;;4.10;;
41217;SDS011;26950;50.960;7.138;2023-04-24T14:39:41;10.13;;;3.80;;
41217;SDS011;26950;50.960;7.138;2023-04-24T14:42:09;10.00;;;3.97;;
41217;SDS011;26950;50.960;7.138;2023-04-24T14:44:35;11.40;;;4.10;;
41217;SDS011;26950;50.960;7.138;2023-04-24T14:47:01;6.63;;;3.40;;
41217;SDS011;26950;50.960;7.138;2023-04-24T14:49:28;10.37;;;3.67;;